Station Historical Data
Daily Summary for September 30, 2017 Units:  English    Metric   Both
« Previous Day
Next Day »
Daily Weekly Monthly Yearly Custom
  High: Low: Average:
Temperature: 59.7 °F 42.5 °F 50.7 °F
Dew Point: 48.1 °F 38.5 °F 43.3 °F
Humidity: 91% 52% 77%
Wind Speed: 10.0mph 0.0mph 1.8mph
Wind Gust: 16.0mph - -
Wind- - West
Pressure: 30.42 in 30.08 in -
Precipitation: 0.00 in    
Historical Graphs
 
 
Tabular Data for September 30, 2017
Time Temperature Dew Point Pressure Wind Wind Speed Wind Gust Humidity Rainfall Rate (Hourly)
00:04 51.2 °F 48.1 °F 30.08 in NNE 10.0 mph 12.0 mph 89% 0.02 in
00:09 51.0 °F 47.9 °F 30.08 in NW 7.0 mph 10.0 mph 89% 0.02 in
00:14 51.0 °F 47.9 °F 30.09 in NNW 5.0 mph 12.0 mph 89% 0.01 in
00:19 50.8 °F 47.7 °F 30.09 in NNW 4.0 mph 12.0 mph 89% 0.01 in
00:24 50.7 °F 47.6 °F 30.10 in North 5.0 mph 16.0 mph 89% 0.01 in
00:29 50.5 °F 47.4 °F 30.10 in North 3.0 mph 10.0 mph 89% 0.01 in
00:34 50.4 °F 47.3 °F 30.11 in North 3.0 mph 10.0 mph 89% 0.01 in
00:39 50.3 °F 47.2 °F 30.11 in NNW 4.0 mph 11.0 mph 89% 0.02 in
00:44 50.1 °F 47.0 °F 30.11 in NNW 4.0 mph 11.0 mph 89% 0.02 in
00:49 49.9 °F 46.8 °F 30.12 in North 5.0 mph 13.0 mph 89% 0.02 in
00:54 49.9 °F 46.8 °F 30.12 in NNW 5.0 mph 13.0 mph 89% 0.02 in
00:59 49.9 °F 46.8 °F 30.12 in NNW 3.0 mph 13.0 mph 89% 0.02 in
01:04 49.7 °F 46.6 °F 30.12 in NNE 4.0 mph 9.0 mph 89% 0.02 in
01:09 49.7 °F 46.6 °F 30.13 in NNW 2.0 mph 12.0 mph 89% 0.02 in
01:14 49.6 °F 46.8 °F 30.13 in North 4.0 mph 9.0 mph 90% 0.02 in
01:19 49.7 °F 46.9 °F 30.14 in WNW 4.0 mph 8.0 mph 90% 0.03 in
01:24 49.7 °F 46.9 °F 30.14 in Calm   8.0 mph 90% 0.03 in
01:29 49.6 °F 46.8 °F 30.14 in NNW 8.0 mph 12.0 mph 90% 0.03 in
01:34 49.4 °F 46.6 °F 30.14 in NNW 4.0 mph 16.0 mph 90% 0.03 in
01:39 49.4 °F 46.6 °F 30.15 in North 4.0 mph 16.0 mph 90% 0.03 in
01:44 49.3 °F 46.5 °F 30.15 in North 4.0 mph 11.0 mph 90% 0.03 in
01:49 49.2 °F 46.4 °F 30.15 in North 4.0 mph 11.0 mph 90% 0.03 in
01:54 49.1 °F 46.3 °F 30.16 in NNW 4.0 mph 12.0 mph 90% 0.03 in
01:59 49.0 °F 46.2 °F 30.16 in NW 3.0 mph 8.0 mph 90% 0.03 in
02:04 48.9 °F 46.1 °F 30.16 in North 3.0 mph 10.0 mph 90% 0.02 in
02:09 48.9 °F 46.1 °F 30.17 in North 4.0 mph 14.0 mph 90% 0.03 in
02:14 48.8 °F 46.0 °F 30.17 in NNW 4.0 mph 14.0 mph 90% 0.03 in
02:19 48.8 °F 46.3 °F 30.17 in NNW 4.0 mph 8.0 mph 91% 0.02 in
02:24 48.8 °F 46.0 °F 30.17 in NNW 4.0 mph 7.0 mph 90% 0.02 in
02:29 48.8 °F 46.0 °F 30.18 in Calm   4.0 mph 90% 0.03 in
02:34 48.8 °F 46.0 °F 30.18 in North 1.0 mph 8.0 mph 90% 0.03 in
02:39 48.8 °F 46.0 °F 30.18 in NNW 3.0 mph 8.0 mph 90% 0.02 in
02:44 48.7 °F 46.2 °F 30.18 in NNW 3.0 mph 8.0 mph 91% 0.02 in
02:49 48.6 °F 46.1 °F 30.19 in North 2.0 mph 9.0 mph 91% 0.02 in
02:54 48.5 °F 46.0 °F 30.19 in NW 1.0 mph 7.0 mph 91% 0.02 in
02:59 48.5 °F 46.0 °F 30.19 in NNW 2.0 mph 8.0 mph 91% 0.02 in
03:04 48.5 °F 46.0 °F 30.19 in Calm   5.0 mph 91% 0.03 in
03:09 48.4 °F 45.9 °F 30.19 in NNW 2.0 mph 6.0 mph 91% 0.02 in
03:14 48.5 °F 46.0 °F 30.19 in NNW 2.0 mph 6.0 mph 91% 0.02 in
03:19 48.5 °F 46.0 °F 30.20 in NNW 2.0 mph 10.0 mph 91% 0.02 in
03:24 48.4 °F 45.9 °F 30.20 in NNW 4.0 mph 4.0 mph 91% 0.02 in
03:29 48.4 °F 45.9 °F 30.20 in NNW 1.0 mph 4.0 mph 91% 0.01 in
03:34 48.3 °F 45.8 °F 30.20 in NW 3.0 mph 6.0 mph 91% 0.01 in
03:39 48.3 °F 45.8 °F 30.20 in NNW 2.0 mph 8.0 mph 91% 0.01 in
03:44 48.3 °F 45.5 °F 30.20 in NNW 2.0 mph 8.0 mph 90% 0.01 in
03:49 48.3 °F 45.5 °F 30.20 in Calm   7.0 mph 90% 0.01 in
03:54 48.4 °F 45.6 °F 30.21 in Calm   3.0 mph 90% 0.01 in
03:59 48.5 °F 45.7 °F 30.21 in NNW 2.0 mph 4.0 mph 90% 0.01 in
04:04 48.4 °F 45.6 °F 30.21 in NNW 1.0 mph 6.0 mph 90% 0.00 in
04:09 48.3 °F 45.5 °F 30.21 in NNW 1.0 mph 6.0 mph 90% 0.00 in
04:14 48.3 °F 45.5 °F 30.21 in North 2.0 mph 5.0 mph 90% 0.00 in
04:19 48.4 °F 45.6 °F 30.21 in NNW 2.0 mph 5.0 mph 90% 0.00 in
04:24 48.4 °F 45.3 °F 30.22 in NNW 1.0 mph 5.0 mph 89% 0.00 in
04:29 48.3 °F 45.2 °F 30.22 in NNW 1.0 mph 5.0 mph 89% 0.00 in
04:34 48.3 °F 45.2 °F 30.23 in NNW 1.0 mph 3.0 mph 89% 0.00 in
04:39 48.3 °F 45.2 °F 30.23 in Calm   7.0 mph 89% 0.00 in
04:44 48.3 °F 45.2 °F 30.23 in NNW 2.0 mph 5.0 mph 89% 0.00 in
04:49 48.4 °F 45.3 °F 30.23 in Calm   6.0 mph 89% 0.00 in
04:54 48.3 °F 45.2 °F 30.23 in Calm   5.0 mph 89% 0.00 in
05:04 48.5 °F 45.4 °F 30.24 in NNW 2.0 mph 8.0 mph 89% 0.00 in
05:09 48.5 °F 45.4 °F 30.24 in NNW 1.0 mph 5.0 mph 89% 0.00 in
05:14 48.6 °F 45.2 °F 30.24 in NW 1.0 mph 5.0 mph 88% 0.00 in
05:19 48.6 °F 45.2 °F 30.24 in NNW 1.0 mph 8.0 mph 88% 0.00 in
05:24 48.6 °F 45.2 °F 30.24 in Calm   4.0 mph 88% 0.00 in
05:29 48.7 °F 45.3 °F 30.25 in NNW 1.0 mph 7.0 mph 88% 0.00 in
05:34 48.7 °F 45.3 °F 30.25 in NNW 1.0 mph 7.0 mph 88% 0.00 in
05:39 48.7 °F 45.3 °F 30.25 in Calm   5.0 mph 88% 0.00 in
05:44 48.7 °F 45.3 °F 30.25 in Calm   5.0 mph 88% 0.00 in
05:49 48.7 °F 45.3 °F 30.25 in Calm   5.0 mph 88% 0.00 in
05:54 48.6 °F 44.9 °F 30.25 in NW 3.0 mph 5.0 mph 87% 0.00 in
05:59 48.6 °F 44.9 °F 30.25 in NNW 2.0 mph 7.0 mph 87% 0.00 in
06:04 48.7 °F 45.0 °F 30.26 in Calm   4.0 mph 87% 0.00 in
06:09 48.7 °F 45.0 °F 30.26 in NNW 1.0 mph 3.0 mph 87% 0.00 in
06:14 48.7 °F 45.0 °F 30.26 in WNW 2.0 mph 6.0 mph 87% 0.00 in
06:19 48.8 °F 45.1 °F 30.26 in WNW 2.0 mph 5.0 mph 87% 0.00 in
06:24 48.7 °F 45.0 °F 30.27 in Calm   5.0 mph 87% 0.00 in
06:29 48.7 °F 45.0 °F 30.27 in Calm   3.0 mph 87% 0.00 in
06:34 48.7 °F 45.0 °F 30.27 in NNW 1.0 mph 3.0 mph 87% 0.00 in
06:39 48.6 °F 44.6 °F 30.28 in NNW 1.0 mph 3.0 mph 86% 0.00 in
06:44 48.7 °F 44.7 °F 30.28 in NW 1.0 mph 3.0 mph 86% 0.00 in
06:49 48.7 °F 44.7 °F 30.28 in Calm   2.0 mph 86% 0.00 in
06:54 48.6 °F 44.6 °F 30.28 in Calm   2.0 mph 86% 0.00 in
06:59 48.7 °F 44.7 °F 30.28 in WNW 2.0 mph 3.0 mph 86% 0.00 in
07:04 48.8 °F 44.8 °F 30.29 in NNW 2.0 mph 6.0 mph 86% 0.00 in
07:09 48.7 °F 44.7 °F 30.29 in Calm   4.0 mph 86% 0.00 in
07:14 48.7 °F 44.7 °F 30.29 in NNW 2.0 mph 4.0 mph 86% 0.00 in
07:19 48.7 °F 44.7 °F 30.30 in NNW 2.0 mph 7.0 mph 86% 0.00 in
07:24 48.8 °F 44.5 °F 30.30 in North 6.0 mph 9.0 mph 85% 0.00 in
07:29 48.8 °F 44.5 °F 30.30 in NNW 2.0 mph 9.0 mph 85% 0.00 in
07:34 48.9 °F 44.6 °F 30.31 in NNW 2.0 mph 8.0 mph 85% 0.00 in
07:39 48.9 °F 44.6 °F 30.31 in NNW 2.0 mph 6.0 mph 85% 0.00 in
07:44 48.8 °F 44.5 °F 30.31 in NNW 5.0 mph 7.0 mph 85% 0.00 in
07:49 48.8 °F 44.5 °F 30.32 in North 2.0 mph 6.0 mph 85% 0.00 in
07:54 48.8 °F 44.2 °F 30.32 in NNW 4.0 mph 4.0 mph 84% 0.00 in
07:59 48.8 °F 44.2 °F 30.32 in NNW 1.0 mph 6.0 mph 84% 0.00 in
08:04 48.8 °F 44.2 °F 30.32 in NNW 2.0 mph 10.0 mph 84% 0.00 in
08:09 48.7 °F 44.1 °F 30.32 in NNW 3.0 mph 10.0 mph 84% 0.00 in
08:14 48.7 °F 44.1 °F 30.33 in NW 2.0 mph 5.0 mph 84% 0.00 in
08:19 48.6 °F 43.7 °F 30.33 in NNW 2.0 mph 6.0 mph 83% 0.00 in
08:24 48.7 °F 43.8 °F 30.33 in NNW 1.0 mph 10.0 mph 83% 0.00 in
08:29 48.7 °F 43.8 °F 30.33 in NNW 2.0 mph 10.0 mph 83% 0.00 in
08:34 48.7 °F 43.8 °F 30.33 in NNW 2.0 mph 5.0 mph 83% 0.00 in
08:39 48.8 °F 43.9 °F 30.34 in Calm   3.0 mph 83% 0.00 in
08:44 48.8 °F 43.9 °F 30.34 in West 1.0 mph 4.0 mph 83% 0.00 in
08:49 48.7 °F 43.8 °F 30.34 in North 2.0 mph 6.0 mph 83% 0.00 in
08:54 48.7 °F 43.8 °F 30.34 in Calm   6.0 mph 83% 0.00 in
08:59 48.7 °F 43.8 °F 30.34 in NNW 2.0 mph 6.0 mph 83% 0.00 in
09:04 48.9 °F 44.0 °F 30.34 in NNW 1.0 mph 5.0 mph 83% 0.00 in
09:09 48.9 °F 44.0 °F 30.34 in NNW 1.0 mph 9.0 mph 83% 0.00 in
09:14 48.8 °F 43.9 °F 30.34 in NNW 1.0 mph 9.0 mph 83% 0.00 in
09:19 49.1 °F 44.2 °F 30.35 in NW 1.0 mph 4.0 mph 83% 0.00 in
09:24 49.1 °F 44.2 °F 30.35 in NNW 1.0 mph 7.0 mph 83% 0.00 in
09:29 49.3 °F 44.4 °F 30.35 in NNW 3.0 mph 3.0 mph 83% 0.00 in
09:34 49.4 °F 44.5 °F 30.35 in Calm   6.0 mph 83% 0.00 in
09:39 49.6 °F 44.6 °F 30.35 in North 1.0 mph 8.0 mph 83% 0.00 in
09:44 49.7 °F 44.4 °F 30.35 in Calm   8.0 mph 82% 0.00 in
09:49 49.9 °F 44.6 °F 30.36 in NNW 1.0 mph 6.0 mph 82% 0.00 in
09:54 50.0 °F 44.7 °F 30.36 in North 3.0 mph 8.0 mph 82% 0.00 in
09:59 50.1 °F 44.5 °F 30.36 in NNW 3.0 mph 7.0 mph 81% 0.00 in
10:04 50.4 °F 44.8 °F 30.36 in NNW 2.0 mph 7.0 mph 81% 0.00 in
10:09 50.5 °F 44.6 °F 30.36 in NNW 2.0 mph 6.0 mph 80% 0.00 in
10:14 50.7 °F 45.1 °F 30.37 in NNW 2.0 mph 8.0 mph 81% 0.00 in
10:19 50.8 °F 44.9 °F 30.37 in NNW 1.0 mph 6.0 mph 80% 0.00 in
10:24 51.4 °F 45.4 °F 30.37 in North 4.0 mph 9.0 mph 80% 0.00 in
10:29 51.4 °F 45.1 °F 30.37 in NNE 5.0 mph 6.0 mph 79% 0.00 in
10:34 51.2 °F 44.9 °F 30.37 in North 2.0 mph 6.0 mph 79% 0.00 in
10:39 51.4 °F 44.8 °F 30.38 in NNW 3.0 mph 10.0 mph 78% 0.00 in
10:44 52.5 °F 45.8 °F 30.38 in NNW 3.0 mph 10.0 mph 78% 0.00 in
10:49 52.8 °F 45.4 °F 30.38 in NNE 3.0 mph 6.0 mph 76% 0.00 in
10:54 53.2 °F 45.5 °F 30.38 in North 4.0 mph 7.0 mph 75% 0.00 in
10:59 53.8 °F 45.7 °F 30.38 in NNW 3.0 mph 7.0 mph 74% 0.00 in
11:04 54.9 °F 46.0 °F 30.38 in NNW 3.0 mph 7.0 mph 72% 0.00 in
11:09 54.4 °F 45.2 °F 30.38 in NW 2.0 mph 4.0 mph 71% 0.00 in
11:14 54.5 °F 45.3 °F 30.38 in WNW 1.0 mph 7.0 mph 71% 0.00 in
11:19 53.9 °F 44.0 °F 30.38 in Calm   4.0 mph 69% 0.00 in
11:24 53.4 °F 44.2 °F 30.38 in North 6.0 mph 7.0 mph 71% 0.00 in
11:29 52.5 °F 43.7 °F 30.38 in NW 2.0 mph 7.0 mph 72% 0.00 in
11:34 53.7 °F 45.6 °F 30.38 in NW 2.0 mph 7.0 mph 74% 0.00 in
11:39 53.6 °F 44.4 °F 30.39 in NW 2.0 mph 6.0 mph 71% 0.00 in
11:44 53.0 °F 43.5 °F 30.39 in NNW 2.0 mph 6.0 mph 70% 0.00 in
11:49 52.7 °F 43.6 °F 30.39 in NNW 3.0 mph 7.0 mph 71% 0.00 in
11:54 52.5 °F 43.7 °F 30.39 in NNW 4.0 mph 5.0 mph 72% 0.00 in
11:59 54.1 °F 45.6 °F 30.39 in NNW 3.0 mph 7.0 mph 73% 0.00 in
12:04 54.4 °F 45.2 °F 30.39 in North 2.0 mph 7.0 mph 71% 0.00 in
12:09 54.4 °F 44.1 °F 30.39 in Calm   5.0 mph 68% 0.00 in
12:14 54.2 °F 44.2 °F 30.39 in North 4.0 mph 5.0 mph 69% 0.00 in
12:19 53.9 °F 42.8 °F 30.39 in Calm   5.0 mph 66% 0.00 in
12:24 55.9 °F 45.5 °F 30.39 in NE 2.0 mph 5.0 mph 68% 0.00 in
12:29 55.9 °F 44.3 °F 30.39 in NNE 2.0 mph 5.0 mph 65% 0.00 in
12:34 55.1 °F 43.9 °F 30.39 in NNE 2.0 mph 8.0 mph 66% 0.00 in
12:39 54.4 °F 44.1 °F 30.39 in North 2.0 mph 8.0 mph 68% 0.00 in
12:44 53.8 °F 43.5 °F 30.40 in NNW 3.0 mph 9.0 mph 68% 0.00 in
12:49 54.1 °F 44.5 °F 30.40 in NNW 3.0 mph 5.0 mph 70% 0.00 in
12:54 54.3 °F 44.3 °F 30.40 in NNW 3.0 mph 5.0 mph 69% 0.00 in
12:59 54.2 °F 43.9 °F 30.40 in North 3.0 mph 7.0 mph 68% 0.00 in
13:04 54.9 °F 44.5 °F 30.40 in North 3.0 mph 7.0 mph 68% 0.00 in
13:09 55.3 °F 44.1 °F 30.40 in North 3.0 mph 7.0 mph 66% 0.00 in
13:14 55.3 °F 44.1 °F 30.40 in NNE 2.0 mph 6.0 mph 66% 0.00 in
13:19 55.0 °F 44.2 °F 30.40 in NNW 3.0 mph 6.0 mph 67% 0.00 in
13:24 54.9 °F 44.1 °F 30.39 in ENE 4.0 mph 4.0 mph 67% 0.00 in
13:29 55.3 °F 42.5 °F 30.39 in NNE 2.0 mph 7.0 mph 62% 0.00 in
13:34 55.4 °F 42.6 °F 30.39 in NNE 3.0 mph 7.0 mph 62% 0.00 in
13:39 56.9 °F 44.8 °F 30.39 in East 5.0 mph 5.0 mph 64% 0.00 in
13:44 58.0 °F 45.5 °F 30.39 in NNE 1.0 mph 7.0 mph 63% 0.00 in
13:49 57.1 °F 43.3 °F 30.39 in NNW 2.0 mph 5.0 mph 60% 0.00 in
13:54 55.5 °F 43.5 °F 30.39 in NNE 2.0 mph 9.0 mph 64% 0.00 in
13:59 55.0 °F 43.4 °F 30.39 in NNE 2.0 mph 9.0 mph 65% 0.00 in
14:04 54.6 °F 43.1 °F 30.39 in NNE 1.0 mph 8.0 mph 65% 0.00 in
14:09 56.1 °F 44.5 °F 30.39 in NNW 2.0 mph 4.0 mph 65% 0.00 in
14:14 58.1 °F 44.3 °F 30.39 in NNW 3.0 mph 9.0 mph 60% 0.00 in
14:19 58.3 °F 43.6 °F 30.39 in NNW 3.0 mph 11.0 mph 58% 0.00 in
14:24 58.6 °F 42.9 °F 30.39 in North 3.0 mph 11.0 mph 56% 0.00 in
14:29 58.7 °F 44.0 °F 30.39 in NNW 2.0 mph 7.0 mph 58% 0.00 in
14:34 59.3 °F 43.6 °F 30.38 in NNW 5.0 mph 10.0 mph 56% 0.00 in
14:39 58.9 °F 42.8 °F 30.39 in ENE 5.0 mph 8.0 mph 55% 0.00 in
14:44 56.8 °F 41.7 °F 30.39 in NNW 3.0 mph 9.0 mph 57% 0.00 in
14:49 55.4 °F 41.3 °F 30.39 in NNW 3.0 mph 8.0 mph 59% 0.00 in
14:54 56.9 °F 42.3 °F 30.38 in NNW 2.0 mph 10.0 mph 58% 0.00 in
14:59 58.7 °F 44.0 °F 30.38 in ENE 1.0 mph 5.0 mph 58% 0.00 in
15:04 59.7 °F 43.5 °F 30.38 in North 2.0 mph 8.0 mph 55% 0.00 in
15:09 58.9 °F 41.3 °F 30.38 in NNE 3.0 mph 8.0 mph 52% 0.00 in
15:14 56.8 °F 41.3 °F 30.38 in NE 3.0 mph 8.0 mph 56% 0.00 in
15:19 56.3 °F 41.3 °F 30.38 in North 2.0 mph 6.0 mph 57% 0.00 in
15:24 57.7 °F 43.0 °F 30.38 in NNW 2.0 mph 6.0 mph 58% 0.00 in
15:29 59.0 °F 44.2 °F 30.38 in WNW 2.0 mph 7.0 mph 58% 0.00 in
15:34 59.1 °F 43.4 °F 30.38 in NE 5.0 mph 8.0 mph 56% 0.00 in
15:39 58.7 °F 42.6 °F 30.38 in NNE 1.0 mph 8.0 mph 55% 0.00 in
15:44 58.1 °F 41.5 °F 30.38 in NNE 4.0 mph 7.0 mph 54% 0.00 in
15:49 58.4 °F 43.2 °F 30.38 in North 2.0 mph 7.0 mph 57% 0.00 in
15:54 58.7 °F 43.0 °F 30.38 in NNW 1.0 mph 4.0 mph 56% 0.00 in
15:59 58.6 °F 42.5 °F 30.38 in North 3.0 mph 7.0 mph 55% 0.00 in
16:04 56.8 °F 41.7 °F 30.38 in North 3.0 mph 7.0 mph 57% 0.00 in
16:09 55.8 °F 41.2 °F 30.38 in NNW 2.0 mph 7.0 mph 58% 0.00 in
16:14 56.7 °F 42.1 °F 30.38 in NNW 2.0 mph 5.0 mph 58% 0.00 in
16:19 57.9 °F 42.3 °F 30.37 in NE 3.0 mph 5.0 mph 56% 0.00 in
16:24 58.1 °F 41.5 °F 30.37 in North 2.0 mph 3.0 mph 54% 0.00 in
16:29 58.6 °F 42.0 °F 30.37 in North 2.0 mph 6.0 mph 54% 0.00 in
16:34 58.9 °F 41.8 °F 30.37 in NNW 3.0 mph 7.0 mph 53% 0.00 in
16:39 58.9 °F 44.1 °F 30.37 in NNW 3.0 mph 11.0 mph 58% 0.00 in
16:44 58.4 °F 42.3 °F 30.37 in NNW 3.0 mph 11.0 mph 55% 0.00 in
16:49 56.9 °F 41.4 °F 30.37 in NNW 1.0 mph 4.0 mph 56% 0.00 in
16:54 56.4 °F 41.8 °F 30.37 in NW 2.0 mph 7.0 mph 58% 0.00 in
16:59 57.0 °F 41.4 °F 30.37 in NW 3.0 mph 7.0 mph 56% 0.00 in
17:04 57.3 °F 41.3 °F 30.37 in NW 3.0 mph 5.0 mph 55% 0.00 in
17:09 57.5 °F 41.9 °F 30.37 in NW 2.0 mph 3.0 mph 56% 0.00 in
17:14 57.7 °F 42.1 °F 30.37 in NNW 4.0 mph 8.0 mph 56% 0.00 in
17:19 57.3 °F 41.7 °F 30.37 in NW 1.0 mph 7.0 mph 56% 0.00 in
17:24 57.5 °F 42.4 °F 30.37 in North 3.0 mph 4.0 mph 57% 0.00 in
17:29 57.2 °F 41.6 °F 30.37 in NNE 2.0 mph 5.0 mph 56% 0.00 in
17:34 56.3 °F 41.3 °F 30.38 in North 2.0 mph 6.0 mph 57% 0.00 in
17:39 55.8 °F 40.8 °F 30.38 in North 2.0 mph 6.0 mph 57% 0.00 in
17:44 55.8 °F 41.7 °F 30.37 in NNW 2.0 mph 6.0 mph 59% 0.00 in
17:49 55.5 °F 41.0 °F 30.38 in North 3.0 mph 11.0 mph 58% 0.00 in
17:54 55.3 °F 40.8 °F 30.37 in North 1.0 mph 5.0 mph 58% 0.00 in
17:59 55.1 °F 40.6 °F 30.38 in Calm   6.0 mph 58% 0.00 in
18:04 54.7 °F 41.1 °F 30.38 in NE 2.0 mph 4.0 mph 60% 0.00 in
18:09 54.4 °F 41.2 °F 30.38 in NNE 2.0 mph 4.0 mph 61% 0.00 in
18:14 54.1 °F 40.9 °F 30.38 in North 3.0 mph 3.0 mph 61% 0.00 in
18:19 53.8 °F 41.5 °F 30.38 in Calm   3.0 mph 63% 0.00 in
18:24 53.6 °F 40.9 °F 30.38 in Calm   3.0 mph 62% 0.00 in
18:29 53.4 °F 40.7 °F 30.38 in NNW 1.0 mph 5.0 mph 62% 0.00 in
18:34 53.2 °F 40.9 °F 30.38 in NNW 1.0 mph 5.0 mph 63% 0.00 in
18:39 53.0 °F 40.7 °F 30.38 in NW 1.0 mph 4.0 mph 63% 0.00 in
18:44 52.7 °F 40.9 °F 30.38 in NNW 1.0 mph 4.0 mph 64% 0.00 in
18:49 52.5 °F 41.1 °F 30.38 in Calm   2.0 mph 65% 0.00 in
18:54 52.1 °F 40.7 °F 30.38 in NNW 2.0 mph 2.0 mph 65% 0.00 in
18:59 52.0 °F 40.6 °F 30.38 in Calm   2.0 mph 65% 0.00 in
19:04 51.5 °F 40.5 °F 30.38 in Calm   2.0 mph 66% 0.00 in
19:09 51.0 °F 40.4 °F 30.39 in Calm   3.0 mph 67% 0.00 in
19:14 50.8 °F 40.6 °F 30.39 in Calm   3.0 mph 68% 0.00 in
19:19 50.6 °F 40.4 °F 30.39 in Calm     68% 0.00 in
19:24 50.4 °F 40.6 °F 30.39 in Calm     69% 0.00 in
19:29 50.2 °F 40.4 °F 30.39 in Calm     69% 0.00 in
19:34 50.0 °F 40.6 °F 30.39 in Calm     70% 0.00 in
19:39 49.7 °F 40.3 °F 30.39 in Calm     70% 0.00 in
19:44 49.4 °F 40.4 °F 30.40 in Calm     71% 0.00 in
19:49 49.2 °F 40.6 °F 30.40 in Calm     72% 0.00 in
19:54 49.0 °F 40.4 °F 30.40 in Calm     72% 0.00 in
19:59 48.6 °F 40.0 °F 30.40 in Calm     72% 0.00 in
20:04 48.4 °F 40.1 °F 30.40 in Calm     73% 0.00 in
20:09 48.4 °F 40.1 °F 30.40 in Calm     73% 0.00 in
20:14 48.2 °F 40.3 °F 30.40 in Calm     74% 0.00 in
20:19 48.0 °F 40.1 °F 30.40 in Calm     74% 0.00 in
20:24 47.8 °F 39.9 °F 30.41 in Calm     74% 0.00 in
20:29 47.6 °F 40.1 °F 30.41 in Calm     75% 0.00 in
20:34 47.6 °F 40.1 °F 30.41 in Calm     75% 0.00 in
20:39 47.4 °F 39.9 °F 30.41 in Calm     75% 0.00 in
20:44 47.1 °F 39.6 °F 30.41 in Calm     75% 0.00 in
20:49 46.9 °F 39.7 °F 30.41 in Calm     76% 0.00 in
20:54 46.5 °F 39.3 °F 30.41 in Calm     76% 0.00 in
20:59 46.2 °F 39.4 °F 30.41 in Calm     77% 0.00 in
21:04 45.9 °F 39.4 °F 30.41 in Calm     78% 0.00 in
21:09 45.7 °F 39.6 °F 30.41 in Calm     79% 0.00 in
21:14 45.5 °F 39.4 °F 30.42 in Calm     79% 0.00 in
21:19 45.4 °F 39.3 °F 30.42 in Calm     79% 0.00 in
21:24 45.1 °F 39.0 °F 30.42 in Calm     79% 0.00 in
21:29 44.8 °F 39.0 °F 30.42 in Calm     80% 0.00 in
21:34 44.9 °F 39.1 °F 30.42 in Calm     80% 0.00 in
21:39 44.6 °F 38.8 °F 30.42 in Calm     80% 0.00 in
21:44 44.7 °F 39.2 °F 30.42 in Calm     81% 0.00 in
21:49 44.7 °F 38.9 °F 30.42 in Calm     80% 0.00 in
21:54 44.5 °F 39.0 °F 30.42 in Calm     81% 0.00 in
21:59 44.1 °F 39.0 °F 30.42 in Calm     82% 0.00 in
22:04 43.9 °F 38.8 °F 30.42 in Calm     82% 0.00 in
22:09 43.7 °F 38.9 °F 30.42 in Calm     83% 0.00 in
22:14 43.7 °F 38.9 °F 30.42 in Calm     83% 0.00 in
22:19 43.4 °F 38.6 °F 30.42 in Calm     83% 0.00 in
22:24 43.3 °F 38.5 °F 30.42 in Calm     83% 0.00 in
22:29 43.0 °F 38.5 °F 30.42 in Calm     84% 0.00 in
22:34 43.3 °F 39.1 °F 30.42 in Calm     85% 0.00 in
22:39 43.7 °F 39.2 °F 30.42 in Calm     84% 0.00 in
22:44 43.7 °F 39.2 °F 30.42 in Calm     84% 0.00 in
22:49 43.5 °F 39.0 °F 30.42 in Calm     84% 0.00 in
22:54 43.2 °F 38.7 °F 30.42 in Calm     84% 0.00 in
22:59 43.0 °F 38.5 °F 30.42 in Calm     84% 0.00 in
23:04 42.8 °F 38.6 °F 30.42 in Calm     85% 0.00 in
23:09 43.1 °F 38.9 °F 30.42 in Calm     85% 0.00 in
23:14 43.3 °F 39.1 °F 30.42 in Calm     85% 0.00 in
23:19 43.5 °F 39.3 °F 30.42 in Calm     85% 0.00 in
23:24 43.4 °F 39.2 °F 30.42 in Calm     85% 0.00 in
23:29 43.0 °F 38.8 °F 30.42 in Calm     85% 0.00 in
23:34 42.9 °F 39.0 °F 30.42 in Calm     86% 0.00 in
23:39 42.9 °F 39.0 °F 30.42 in Calm     86% 0.00 in
23:44 42.9 °F 39.0 °F 30.42 in Calm     86% 0.00 in
23:49 42.9 °F 39.0 °F 30.42 in Calm     86% 0.00 in
23:54 42.7 °F 38.8 °F 30.42 in Calm     86% 0.00 in
23:59 42.5 °F 38.6 °F 30.42 in Calm     86% 0.00 in
Buffalo, New York, USA
Compliments of Weather Underground - 2.5 mb